Terminal Aerodrome Forecast
Issued by NWS

Home | Current Version | Previous Version | Text Only | Print | Product List | Glossary On
Versions: 1 2 3 4 5 6 7 8 9 10 11 12 13 14 15 16 17 18 19 20 21 22 23 24 25 26
000
FTUS44 KMAF 232300
TAFHOB
TAF
KHOB 232325Z 2400/2424 15011KT P6SM FEW150 BKN250
      TEMPO 2406/2410 4SM BR BKN015
     FM241600 24013G20KT P6SM SKC=

USA.gov is the U.S. government's official web portal to all federal, state and local government web resources and services.